createdAt,value
2023-05-06T00:02:15.242Z,54.97
2023-05-06T00:07:17.205Z,54.48
2023-05-06T00:12:18.986Z,54.90
2023-05-06T00:17:20.778Z,55.26
2023-05-06T00:22:22.548Z,55.80
2023-05-06T00:27:24.354Z,55.96
2023-05-06T00:32:26.151Z,55.91
2023-05-06T00:37:27.997Z,56.17
2023-05-06T00:42:32.807Z,56.62
2023-05-06T00:47:34.748Z,56.49
2023-05-06T00:52:36.734Z,56.68
2023-05-06T00:57:40.457Z,56.57
2023-05-06T01:02:47.494Z,57.05
2023-05-06T01:08:23.038Z,57.58
2023-05-06T01:13:35.672Z,57.47
2023-05-06T01:18:38.714Z,57.78
2023-05-06T01:23:58.385Z,58.54
2023-05-06T01:29:02.434Z,58.50
2023-05-06T01:34:18.280Z,59.00
2023-05-06T01:39:29.124Z,58.93
2023-05-06T01:44:33.951Z,59.22
2023-05-06T01:49:37.043Z,58.80
2023-05-06T01:54:38.941Z,59.08
2023-05-06T01:59:40.786Z,58.97
2023-05-06T02:04:42.559Z,59.21
2023-05-06T02:09:44.594Z,59.78
2023-05-06T02:14:46.619Z,59.98
2023-05-06T02:19:48.473Z,60.06
2023-05-06T02:24:50.298Z,60.47
2023-05-06T02:29:52.078Z,60.31
2023-05-06T02:34:53.764Z,60.52
2023-05-06T02:39:57.263Z,61.05
2023-05-06T02:44:59.036Z,60.83
2023-05-06T02:50:00.881Z,61.26
2023-05-06T02:55:02.912Z,61.33
2023-05-06T03:00:06.431Z,61.08
2023-05-06T03:05:08.884Z,61.23
2023-05-06T03:10:11.377Z,61.82
2023-05-06T03:15:13.601Z,61.70
2023-05-06T03:20:15.647Z,61.73
2023-05-06T03:25:24.356Z,62.01
2023-05-06T03:30:27.313Z,61.87
2023-05-06T03:35:32.322Z,61.40
2023-05-06T03:40:36.096Z,61.28
2023-05-06T03:45:38.425Z,61.27
2023-05-06T03:50:40.958Z,61.21
2023-05-06T03:55:42.954Z,61.45
2023-05-06T04:00:46.681Z,61.02
2023-05-06T04:05:50.079Z,61.43
2023-05-06T04:10:55.518Z,61.30
2023-05-06T04:16:03.067Z,60.83
2023-05-06T04:21:14.787Z,60.73
2023-05-06T04:26:20.886Z,60.77
2023-05-06T04:31:23.579Z,60.78
2023-05-06T04:36:26.430Z,60.32
2023-05-06T04:41:49.706Z,59.67
2023-05-06T04:46:57.096Z,57.08
2023-05-06T04:52:01.621Z,54.18
2023-05-06T04:57:04.159Z,48.45
2023-05-06T05:02:07.509Z,44.49
2023-05-06T05:07:09.618Z,41.01
2023-05-06T05:12:11.550Z,41.18
2023-05-06T05:17:17.203Z,44.76
2023-05-06T05:22:20.939Z,47.85
2023-05-06T05:27:23.403Z,49.82
2023-05-06T05:32:26.606Z,51.00
2023-05-06T05:37:28.501Z,52.13
2023-05-06T05:42:33.732Z,52.97
2023-05-06T05:47:40.204Z,53.74
2023-05-06T05:52:43.449Z,54.44
2023-05-06T05:57:45.915Z,54.74
2023-05-06T06:02:48.209Z,54.80
2023-05-06T06:07:54.643Z,54.86
2023-05-06T06:12:58.338Z,54.70
2023-05-06T06:18:06.506Z,54.04
2023-05-06T06:23:08.416Z,53.52
2023-05-06T06:28:10.640Z,52.96
2023-05-06T06:33:13.622Z,52.08
2023-05-06T06:38:15.620Z,51.91
2023-05-06T06:43:19.854Z,52.43
2023-05-06T06:48:44.490Z,52.38
2023-05-06T06:53:48.370Z,52.22
2023-05-06T06:58:52.424Z,51.85
2023-05-06T07:03:54.990Z,51.72
2023-05-06T07:08:56.872Z,50.44
2023-05-06T07:13:58.658Z,50.34
2023-05-06T07:19:01.446Z,48.58
2023-05-06T07:24:03.496Z,47.43
2023-05-06T07:29:05.336Z,45.74
2023-05-06T07:34:07.928Z,45.60
2023-05-06T07:39:10.919Z,44.73
2023-05-06T07:44:12.798Z,44.97
2023-05-06T07:49:14.561Z,44.84
2023-05-06T07:54:16.370Z,44.50
2023-05-06T07:59:18.129Z,43.11
2023-05-06T08:04:19.951Z,42.53
2023-05-06T08:09:23.171Z,40.79
2023-05-06T08:14:28.832Z,40.73
2023-05-06T08:19:30.902Z,40.45
2023-05-06T08:24:32.673Z,39.57
2023-05-06T08:29:34.398Z,39.33
2023-05-06T08:34:36.279Z,39.56
2023-05-06T08:39:38.077Z,39.52
2023-05-06T08:44:39.955Z,38.94
2023-05-06T08:49:41.755Z,38.51
2023-05-06T08:54:45.172Z,37.43
2023-05-06T08:59:47.817Z,35.82
2023-05-06T09:04:50.211Z,35.38
2023-05-06T09:09:52.676Z,33.83
2023-05-06T09:14:56.007Z,33.96
2023-05-06T09:19:57.750Z,34.68
2023-05-06T09:25:00.164Z,34.92
2023-05-06T09:30:06.687Z,35.09
2023-05-06T09:35:09.977Z,36.16
2023-05-06T09:40:12.440Z,35.83
2023-05-06T09:45:16.280Z,37.24
2023-05-06T09:50:18.126Z,38.18
2023-05-06T09:55:21.271Z,37.71
2023-05-06T10:00:28.229Z,36.10
2023-05-06T10:05:32.139Z,33.26
2023-05-06T10:10:41.236Z,31.35
2023-05-06T10:15:46.440Z,31.53
2023-05-06T10:20:49.492Z,31.46
2023-05-06T10:25:55.776Z,32.12
2023-05-06T10:30:59.068Z,32.58
2023-05-06T10:36:15.673Z,32.64
2023-05-06T10:41:18.301Z,33.20
2023-05-06T10:46:20.065Z,32.58
2023-05-06T10:51:27.277Z,33.07
2023-05-06T10:56:31.018Z,33.55
2023-05-06T11:01:32.837Z,33.68
2023-05-06T11:06:36.772Z,32.90
2023-05-06T11:12:02.187Z,32.78
2023-05-06T11:17:09.942Z,32.31
2023-05-06T11:22:41.109Z,30.24
2023-05-06T11:27:42.962Z,31.55
2023-05-06T11:32:46.716Z,30.63
2023-05-06T11:37:48.652Z,31.08
2023-05-06T11:42:50.504Z,32.16
2023-05-06T11:47:54.876Z,31.69
2023-05-06T11:52:57.986Z,30.48
2023-05-06T11:57:59.702Z,31.50
2023-05-06T12:03:02.426Z,31.61
2023-05-06T12:08:08.376Z,31.19
2023-05-06T12:13:16.281Z,31.56
2023-05-06T12:18:18.378Z,31.93
2023-05-06T12:23:22.016Z,31.62
2023-05-06T12:28:23.851Z,30.55
2023-05-06T12:33:25.600Z,31.13
2023-05-06T12:38:27.367Z,31.72
2023-05-06T12:43:30.797Z,31.87
2023-05-06T12:48:32.757Z,29.70
2023-05-06T12:53:35.625Z,29.66
2023-05-06T12:58:38.138Z,29.23
2023-05-06T13:03:41.180Z,28.19
2023-05-06T13:08:43.853Z,28.37
2023-05-06T13:13:45.636Z,28.49
2023-05-06T13:18:47.385Z,28.23
2023-05-06T13:23:49.492Z,28.33
2023-05-06T13:28:51.635Z,28.92
2023-05-06T13:33:53.382Z,29.02
2023-05-06T13:38:55.821Z,28.76
2023-05-06T13:43:57.629Z,27.75
2023-05-06T13:48:59.454Z,29.96
2023-05-06T13:54:02.023Z,32.31
2023-05-06T13:59:04.360Z,32.69
2023-05-06T14:04:06.122Z,32.83
2023-05-06T14:09:08.205Z,32.97
2023-05-06T14:14:10.094Z,33.88
2023-05-06T14:19:11.845Z,32.96
2023-05-06T14:24:13.612Z,33.79
2023-05-06T14:29:15.410Z,32.09
2023-05-06T14:34:17.363Z,31.81
2023-05-06T14:39:19.176Z,31.27
2023-05-06T14:44:21.691Z,31.96
2023-05-06T14:49:23.430Z,32.50
2023-05-06T14:54:26.901Z,31.76
2023-05-06T14:59:28.716Z,32.01
2023-05-06T15:04:31.023Z,31.69
2023-05-06T15:09:32.751Z,32.83
2023-05-06T15:14:34.658Z,33.93
2023-05-06T15:19:36.379Z,34.77
2023-05-06T15:24:38.096Z,35.61
2023-05-06T15:29:39.854Z,38.79
2023-05-06T15:34:41.671Z,43.14
2023-05-06T15:39:43.461Z,44.41
2023-05-06T15:44:48.812Z,45.71
2023-05-06T15:49:54.787Z,48.95
2023-05-06T15:54:59.495Z,50.25
2023-05-06T16:00:02.119Z,49.95
2023-05-06T16:05:07.549Z,50.47
2023-05-06T16:10:09.539Z,52.08
2023-05-06T16:15:11.533Z,50.95
2023-05-06T16:20:13.808Z,53.46
2023-05-06T16:25:16.236Z,52.20
2023-05-06T16:30:18.030Z,51.37
2023-05-06T16:35:19.782Z,51.32
2023-05-06T16:40:21.996Z,50.94
2023-05-06T16:45:23.812Z,52.01
2023-05-06T16:50:25.584Z,51.98
2023-05-06T16:55:27.390Z,51.38
2023-05-06T17:00:29.223Z,52.52
2023-05-06T17:05:31.160Z,53.44
2023-05-06T17:10:32.890Z,54.26
2023-05-06T17:15:34.650Z,54.96
2023-05-06T17:20:51.589Z,55.47
2023-05-06T17:25:57.207Z,56.17
2023-05-06T17:30:58.984Z,55.89
2023-05-06T17:36:00.825Z,55.90
2023-05-06T17:41:02.655Z,56.89
2023-05-06T17:46:04.880Z,56.71
2023-05-06T17:51:06.859Z,55.97
2023-05-06T17:56:08.674Z,56.18
2023-05-06T18:01:12.179Z,56.78
2023-05-06T18:06:20.783Z,57.32
2023-05-06T18:11:25.391Z,57.38
2023-05-06T18:16:27.628Z,57.89
2023-05-06T18:21:29.546Z,58.46
2023-05-06T18:26:43.887Z,58.87
2023-05-06T18:31:47.076Z,58.19
2023-05-06T18:36:48.911Z,58.47
2023-05-06T18:41:50.645Z,59.62
2023-05-06T18:46:52.421Z,58.86
2023-05-06T18:51:54.895Z,58.52
2023-05-06T18:56:57.878Z,57.47
2023-05-06T19:02:01.925Z,57.97
2023-05-06T19:07:04.926Z,58.38
2023-05-06T19:12:06.808Z,58.33
2023-05-06T19:17:08.771Z,58.32
2023-05-06T19:22:10.519Z,58.77
2023-05-06T19:27:12.892Z,59.29
2023-05-06T19:32:14.645Z,60.53
2023-05-06T19:37:16.520Z,60.24
2023-05-06T19:42:18.408Z,60.33
2023-05-06T19:47:21.696Z,60.14
2023-05-06T19:52:27.020Z,60.07
2023-05-06T19:57:29.266Z,60.18
2023-05-06T20:02:32.662Z,60.05
2023-05-06T20:07:35.432Z,60.12
2023-05-06T20:12:37.382Z,60.01
2023-05-06T20:17:39.461Z,59.82
2023-05-06T20:22:41.834Z,59.96
2023-05-06T20:27:45.286Z,59.79
2023-05-06T20:32:48.614Z,60.07
2023-05-06T20:37:52.151Z,60.23
2023-05-06T20:42:54.335Z,60.31
2023-05-06T20:47:56.633Z,60.17
2023-05-06T20:52:59.161Z,60.54
2023-05-06T20:58:00.913Z,60.46
2023-05-06T21:03:02.767Z,60.36
2023-05-06T21:08:04.718Z,60.46
2023-05-06T21:13:06.979Z,60.94
2023-05-06T21:18:09.113Z,61.15
2023-05-06T21:23:11.071Z,61.11
2023-05-06T21:28:13.740Z,61.36
2023-05-06T21:33:15.538Z,61.08
2023-05-06T21:38:17.261Z,61.19
2023-05-06T21:43:19.120Z,61.43
2023-05-06T21:48:20.857Z,61.61
2023-05-06T21:53:22.583Z,62.14
2023-05-06T21:58:24.346Z,62.10
2023-05-06T22:03:27.630Z,62.71
2023-05-06T22:08:30.045Z,62.36
2023-05-06T22:13:32.007Z,62.13
2023-05-06T22:18:36.036Z,62.07
2023-05-06T22:23:40.488Z,61.90
2023-05-06T22:28:44.265Z,62.04
2023-05-06T22:33:47.656Z,61.84
2023-05-06T22:38:50.085Z,61.55
2023-05-06T22:43:52.250Z,61.76
2023-05-06T22:48:54.201Z,61.92
2023-05-06T22:53:58.544Z,61.92
2023-05-06T22:59:00.275Z,61.74
2023-05-06T23:04:02.092Z,61.47
2023-05-06T23:09:06.725Z,61.45
2023-05-06T23:14:08.498Z,61.54
2023-05-06T23:19:10.223Z,61.54
2023-05-06T23:24:12.124Z,61.54
2023-05-06T23:29:13.883Z,61.72
2023-05-06T23:34:15.601Z,61.66
2023-05-06T23:39:20.411Z,61.26
2023-05-06T23:44:22.888Z,61.20
2023-05-06T23:49:25.124Z,61.20
2023-05-06T23:54:27.031Z,61.23
2023-05-06T23:59:37.768Z,60.96
